createdAt,value
2019-03-22T00:02:01.916Z,100950.84
2019-03-22T00:04:30.670Z,100946.77
2019-03-22T00:06:59.073Z,100941.41
2019-03-22T00:09:27.487Z,100942.21
2019-03-22T00:11:55.869Z,100939.95
2019-03-22T00:14:24.287Z,100939.86
2019-03-22T00:16:52.684Z,100939.78
2019-03-22T00:19:21.062Z,100939.61
2019-03-22T00:21:49.472Z,100934.56
2019-03-22T00:24:17.856Z,100929.66
2019-03-22T00:26:46.413Z,100939.61
2019-03-22T00:29:15.158Z,100932.52
2019-03-22T00:31:43.554Z,100935.83
2019-03-22T00:34:11.964Z,100926.30
2019-03-22T00:36:40.361Z,100925.73
2019-03-22T00:39:08.815Z,100921.83
2019-03-22T00:41:37.205Z,100921.57
2019-03-22T00:44:05.604Z,100914.00
2019-03-22T00:46:34.017Z,100910.27
2019-03-22T00:49:02.405Z,100912.05
2019-03-22T00:51:30.798Z,100903.80
2019-03-22T00:53:59.289Z,100907.97
2019-03-22T00:56:27.676Z,100903.58
2019-03-22T00:58:56.429Z,100903.48
2019-03-22T01:01:25.104Z,100907.52
2019-03-22T01:03:53.492Z,100907.95
2019-03-22T01:06:21.976Z,100908.59
2019-03-22T01:08:50.428Z,100902.30
2019-03-22T01:11:19.386Z,100899.28
2019-03-22T01:13:47.788Z,100903.17
2019-03-22T01:16:16.178Z,100896.48
2019-03-22T01:18:44.704Z,100901.17
2019-03-22T01:21:13.091Z,100894.66
2019-03-22T01:23:41.480Z,100894.00
2019-03-22T01:26:09.889Z,100889.59
2019-03-22T01:28:38.292Z,100891.69
2019-03-22T01:31:06.801Z,100888.33
2019-03-22T01:33:35.199Z,100888.87
2019-03-22T01:36:03.660Z,100895.86
2019-03-22T01:38:32.411Z,100893.16
2019-03-22T01:41:01.091Z,100893.08
2019-03-22T01:43:29.504Z,100895.67
2019-03-22T01:45:57.892Z,100891.47
2019-03-22T01:48:26.294Z,100888.35
2019-03-22T01:50:54.714Z,100890.47
2019-03-22T01:53:23.104Z,100889.66
2019-03-22T01:55:51.514Z,100888.87
2019-03-22T01:58:19.911Z,100891.77
2019-03-22T02:00:48.340Z,100894.34
2019-03-22T02:03:16.749Z,100891.98
2019-03-22T02:05:45.216Z,100901.63
2019-03-22T02:08:13.627Z,100895.33
2019-03-22T02:10:42.007Z,100893.45
2019-03-22T02:13:10.405Z,100889.55
2019-03-22T02:15:38.816Z,100887.77
2019-03-22T02:18:07.212Z,100881.89
2019-03-22T02:20:35.594Z,100891.11
2019-03-22T02:23:04.012Z,100888.65
2019-03-22T02:25:32.707Z,100888.88
2019-03-22T02:28:04.285Z,100894.28
2019-03-22T02:30:31.255Z,100894.52
2019-03-22T02:32:59.645Z,100901.66
2019-03-22T02:35:29.570Z,100901.76
2019-03-22T02:37:58.132Z,100904.10
2019-03-22T02:40:26.872Z,100899.20
2019-03-22T02:42:55.270Z,100894.62
2019-03-22T02:45:23.797Z,100899.91
2019-03-22T02:47:52.427Z,100893.41
2019-03-22T02:50:20.856Z,100889.61
2019-03-22T02:52:49.253Z,100890.91
2019-03-22T02:55:17.642Z,100888.70
2019-03-22T02:57:46.348Z,100886.43
2019-03-22T03:00:16.400Z,100886.52
2019-03-22T03:02:44.901Z,100883.41
2019-03-22T03:05:14.827Z,100880.31
2019-03-22T03:07:43.486Z,100882.72
2019-03-22T03:10:14.687Z,100892.77
2019-03-22T03:12:44.193Z,100894.17
2019-03-22T03:15:14.882Z,100890.41
2019-03-22T03:17:43.370Z,100883.13
2019-03-22T03:20:17.101Z,100881.25
2019-03-22T03:22:45.863Z,100874.16
2019-03-22T03:25:15.816Z,100876.58
2019-03-22T03:27:44.339Z,100875.50
2019-03-22T03:30:17.925Z,100870.98
2019-03-22T03:32:46.268Z,100877.70
2019-03-22T03:35:15.119Z,100870.53
2019-03-22T03:37:43.499Z,100867.11
2019-03-22T03:40:13.198Z,100871.08
2019-03-22T03:42:41.616Z,100871.60
2019-03-22T03:45:31.509Z,100874.49
2019-03-22T03:48:05.205Z,100877.41
2019-03-22T03:50:34.025Z,100879.45
2019-03-22T03:53:02.503Z,100876.75
2019-03-22T03:55:30.907Z,100878.34
2019-03-22T03:57:59.324Z,100879.97
2019-03-22T04:00:27.879Z,100878.47
2019-03-22T04:02:56.271Z,100878.37
2019-03-22T04:05:24.842Z,100878.59
2019-03-22T04:07:53.608Z,100876.80
2019-03-22T04:10:22.034Z,100880.27
2019-03-22T04:12:50.438Z,100875.08
2019-03-22T04:15:18.825Z,100870.80
2019-03-22T04:17:47.229Z,100865.70
2019-03-22T04:20:15.617Z,100868.20
2019-03-22T04:22:44.351Z,100874.00
2019-03-22T04:25:12.900Z,100871.41
2019-03-22T04:27:41.290Z,100869.02
2019-03-22T04:30:09.841Z,100873.44
2019-03-22T04:32:38.251Z,100879.84
2019-03-22T04:35:07.671Z,100871.25
2019-03-22T04:37:36.121Z,100869.86
2019-03-22T04:40:07.819Z,100864.66
2019-03-22T04:42:36.205Z,100859.95
2019-03-22T04:45:06.453Z,100860.57
2019-03-22T04:47:35.676Z,100856.97
2019-03-22T04:50:05.421Z,100857.45
2019-03-22T04:52:34.146Z,100858.75
2019-03-22T04:55:03.192Z,100862.65
2019-03-22T04:57:33.327Z,100863.95
2019-03-22T05:00:02.456Z,100864.47
2019-03-22T05:02:32.117Z,100869.56
2019-03-22T05:05:00.763Z,100866.45
2019-03-22T05:07:29.726Z,100865.47
2019-03-22T05:09:58.848Z,100867.05
2019-03-22T05:12:27.681Z,100871.64
2019-03-22T05:14:58.133Z,100860.78
2019-03-22T05:17:27.153Z,100865.55
2019-03-22T05:19:57.993Z,100868.35
2019-03-22T05:22:29.239Z,100869.66
2019-03-22T05:24:59.885Z,100871.96
2019-03-22T05:27:29.719Z,100868.47
2019-03-22T05:29:59.750Z,100862.27
2019-03-22T05:32:28.231Z,100866.58
2019-03-22T05:34:56.625Z,100861.88
2019-03-22T05:37:25.217Z,100862.17
2019-03-22T05:39:53.605Z,100863.47
2019-03-22T05:42:21.995Z,100867.46
2019-03-22T05:44:50.400Z,100861.56
2019-03-22T05:47:18.865Z,100869.35
2019-03-22T05:49:47.283Z,100866.06
2019-03-22T05:52:15.685Z,100881.14
2019-03-22T05:54:44.105Z,100876.45
2019-03-22T05:57:14.011Z,100875.92
2019-03-22T05:59:43.793Z,100878.34
2019-03-22T06:02:12.921Z,100884.93
2019-03-22T06:04:42.288Z,100879.42
2019-03-22T06:07:10.705Z,100882.44
2019-03-22T06:09:39.092Z,100887.23
2019-03-22T06:12:07.580Z,100887.82
2019-03-22T06:14:36.002Z,100886.60
2019-03-22T06:17:04.369Z,100882.69
2019-03-22T06:19:32.777Z,100878.47
2019-03-22T06:22:01.170Z,100878.94
2019-03-22T06:24:29.596Z,100878.88
2019-03-22T06:26:57.976Z,100886.45
2019-03-22T06:29:26.369Z,100886.02
2019-03-22T06:31:54.771Z,100885.76
2019-03-22T06:34:23.173Z,100881.13
2019-03-22T06:36:51.570Z,100874.73
2019-03-22T06:39:19.994Z,100874.71
2019-03-22T06:41:48.397Z,100877.76
2019-03-22T06:44:17.112Z,100873.78
2019-03-22T06:46:45.530Z,100878.81
2019-03-22T06:49:13.929Z,100876.81
2019-03-22T06:51:42.657Z,100871.30
2019-03-22T06:54:11.050Z,100865.45
2019-03-22T06:56:39.565Z,100870.61
2019-03-22T06:59:07.956Z,100879.00
2019-03-22T07:01:36.358Z,100881.30
2019-03-22T07:04:05.052Z,100881.47
2019-03-22T07:06:33.748Z,100873.02
2019-03-22T07:09:02.147Z,100875.64
2019-03-22T07:11:30.554Z,100870.39
2019-03-22T07:13:59.317Z,100867.98
2019-03-22T07:16:27.719Z,100876.00
2019-03-22T07:18:56.139Z,100871.63
2019-03-22T07:21:24.541Z,100871.41
2019-03-22T07:23:53.044Z,100867.11
2019-03-22T07:26:21.426Z,100872.27
2019-03-22T07:28:49.817Z,100862.84
2019-03-22T07:31:18.243Z,100868.25
2019-03-22T07:33:46.634Z,100863.58
2019-03-22T07:36:15.030Z,100866.36
2019-03-22T07:38:43.453Z,100866.34
2019-03-22T07:41:11.868Z,100859.38
2019-03-22T07:43:40.560Z,100858.34
2019-03-22T07:46:08.975Z,100855.84
2019-03-22T07:48:37.392Z,100862.47
2019-03-22T07:51:05.786Z,100863.22
2019-03-22T07:53:34.185Z,100857.21
2019-03-22T07:56:02.785Z,100862.93
2019-03-22T07:58:31.181Z,100860.97
2019-03-22T08:00:59.574Z,100859.19
2019-03-22T08:03:28.295Z,100860.09
2019-03-22T08:05:56.681Z,100867.78
2019-03-22T08:08:25.105Z,100859.64
2019-03-22T08:10:53.497Z,100856.20
2019-03-22T08:13:21.889Z,100850.58
2019-03-22T08:15:50.427Z,100848.66
2019-03-22T08:18:18.835Z,100848.07
2019-03-22T08:20:47.388Z,100852.54
2019-03-22T08:23:20.900Z,100850.89
2019-03-22T08:25:49.557Z,100852.88
2019-03-22T08:28:17.951Z,100854.42
2019-03-22T08:30:46.588Z,100852.29
2019-03-22T08:33:14.982Z,100847.56
2019-03-22T08:35:43.401Z,100843.08
2019-03-22T08:38:11.897Z,100838.42
2019-03-22T08:40:40.265Z,100844.94
2019-03-22T08:43:08.686Z,100839.91
2019-03-22T08:45:37.094Z,100837.26
2019-03-22T08:48:05.477Z,100847.47
2019-03-22T08:50:33.992Z,100840.40
2019-03-22T08:53:02.410Z,100831.36
2019-03-22T08:55:30.807Z,100832.25
2019-03-22T08:57:59.201Z,100833.60
2019-03-22T09:00:38.656Z,100836.85
2019-03-22T09:02:57.791Z,100821.08
2019-03-22T09:05:26.285Z,100829.63
2019-03-22T09:07:55.285Z,100817.37
2019-03-22T09:10:23.653Z,100829.41
2019-03-22T09:12:52.153Z,100824.13
2019-03-22T09:15:20.545Z,100823.71
2019-03-22T09:17:49.006Z,100824.59
2019-03-22T09:20:17.388Z,100825.94
2019-03-22T09:22:46.152Z,100822.80
2019-03-22T09:25:14.544Z,100813.84
2019-03-22T09:27:42.959Z,100810.99
2019-03-22T09:30:13.697Z,100808.67
2019-03-22T09:32:42.106Z,100810.81
2019-03-22T09:35:11.147Z,100803.46
2019-03-22T09:37:39.531Z,100796.17
2019-03-22T09:40:08.954Z,100791.83
2019-03-22T09:42:37.591Z,100791.80
2019-03-22T09:45:08.183Z,100789.73
2019-03-22T09:47:36.616Z,100785.43
2019-03-22T09:50:10.132Z,100788.22
2019-03-22T09:52:38.567Z,100780.31
2019-03-22T09:55:13.269Z,100779.02
2019-03-22T09:57:37.549Z,100776.45
2019-03-22T10:00:09.520Z,100771.55
2019-03-22T10:02:37.884Z,100772.20
2019-03-22T10:05:06.974Z,100768.16
2019-03-22T10:07:35.388Z,100767.04
2019-03-22T10:10:05.527Z,100765.48
2019-03-22T10:12:34.311Z,100764.20
2019-03-22T10:15:02.662Z,100762.16
2019-03-22T10:17:31.142Z,100758.69
2019-03-22T10:19:59.482Z,100762.75
2019-03-22T10:22:28.025Z,100758.86
2019-03-22T10:24:56.487Z,100758.05
2019-03-22T10:27:24.869Z,100750.97
2019-03-22T10:29:53.527Z,100750.03
2019-03-22T10:32:23.862Z,100746.97
2019-03-22T10:34:52.066Z,100738.09
2019-03-22T10:37:20.482Z,100746.97
2019-03-22T10:39:48.884Z,100739.85
2019-03-22T10:42:17.411Z,100738.95
2019-03-22T10:44:45.797Z,100738.52
2019-03-22T10:47:14.188Z,100733.67
2019-03-22T10:49:42.685Z,100733.63
2019-03-22T10:52:11.085Z,100729.64
2019-03-22T10:54:39.501Z,100725.59
2019-03-22T10:57:08.081Z,100719.78
2019-03-22T10:59:36.479Z,100719.30
2019-03-22T11:02:07.640Z,100723.72
2019-03-22T11:04:35.190Z,100708.21
2019-03-22T11:07:03.856Z,100711.72
2019-03-22T11:09:32.592Z,100704.15
2019-03-22T11:12:11.734Z,100702.38
2019-03-22T11:14:31.410Z,100707.66
2019-03-22T11:16:59.833Z,100706.41
2019-03-22T11:19:28.257Z,100698.33
2019-03-22T11:21:56.687Z,100696.55
2019-03-22T11:24:25.085Z,100687.66
2019-03-22T11:26:53.490Z,100683.14
2019-03-22T11:29:21.902Z,100681.39
2019-03-22T11:31:50.305Z,100680.07
2019-03-22T11:34:18.729Z,100674.68
2019-03-22T11:36:47.136Z,100672.53
2019-03-22T11:39:16.153Z,100668.91
2019-03-22T11:41:44.658Z,100667.04
2019-03-22T11:44:13.060Z,100658.20
2019-03-22T11:46:41.792Z,100662.68
2019-03-22T11:49:10.538Z,100655.41
2019-03-22T11:51:40.266Z,100658.09
2019-03-22T11:54:08.796Z,100658.17
2019-03-22T11:56:37.510Z,100663.96
2019-03-22T11:59:06.314Z,100649.34
2019-03-22T12:01:34.733Z,100652.89
2019-03-22T12:04:03.137Z,100644.48
2019-03-22T12:06:31.558Z,100643.52
2019-03-22T12:08:59.976Z,100645.12
2019-03-22T12:11:28.364Z,100641.22
2019-03-22T12:13:56.847Z,100637.92
2019-03-22T12:16:25.249Z,100635.22
2019-03-22T12:18:53.645Z,100637.51
2019-03-22T12:21:22.079Z,100633.52
2019-03-22T12:23:50.476Z,100630.02
2019-03-22T12:26:18.883Z,100624.72
2019-03-22T12:28:47.299Z,100622.89
2019-03-22T12:31:15.696Z,100622.88
2019-03-22T12:33:44.123Z,100614.53
2019-03-22T12:36:12.529Z,100612.03
2019-03-22T12:38:40.922Z,100600.89
2019-03-22T12:41:09.647Z,100601.39
2019-03-22T12:43:38.052Z,100597.81
2019-03-22T12:46:06.544Z,100588.77
2019-03-22T12:48:34.936Z,100583.30
2019-03-22T12:51:03.523Z,100578.38
2019-03-22T12:53:32.263Z,100580.63
2019-03-22T12:56:00.663Z,100578.80
2019-03-22T12:58:29.081Z,100582.20
2019-03-22T13:00:57.806Z,100571.48
2019-03-22T13:03:26.222Z,100567.44
2019-03-22T13:05:54.617Z,100556.36
2019-03-22T13:08:23.350Z,100562.56
2019-03-22T13:10:51.753Z,100557.30
2019-03-22T13:13:20.145Z,100563.55
2019-03-22T13:15:48.559Z,100550.55
2019-03-22T13:18:16.961Z,100552.34
2019-03-22T13:20:45.403Z,100548.78
2019-03-22T13:23:13.798Z,100535.89
2019-03-22T13:25:42.194Z,100533.64
2019-03-22T13:28:10.891Z,100526.81
2019-03-22T13:30:39.574Z,100525.89
2019-03-22T13:33:07.997Z,100524.92
2019-03-22T13:35:36.479Z,100526.67
2019-03-22T13:38:05.103Z,100530.19
2019-03-22T13:40:33.524Z,100522.73
2019-03-22T13:43:01.925Z,100524.14
2019-03-22T13:45:30.345Z,100515.99
2019-03-22T13:47:59.038Z,100516.81
2019-03-22T13:50:27.507Z,100510.83
2019-03-22T13:52:55.926Z,100509.03
2019-03-22T13:55:24.333Z,100507.81
2019-03-22T13:57:52.748Z,100509.38
2019-03-22T14:00:21.320Z,100501.53
2019-03-22T14:02:49.717Z,100498.22
2019-03-22T14:05:18.260Z,100504.27
2019-03-22T14:07:46.661Z,100509.81
2019-03-22T14:10:33.220Z,100497.23
2019-03-22T14:13:03.357Z,100503.45
2019-03-22T14:15:32.108Z,100490.68
2019-03-22T14:18:01.017Z,100491.09
2019-03-22T14:20:29.952Z,100498.41
2019-03-22T14:22:58.516Z,100501.50
2019-03-22T14:25:26.934Z,100496.08
2019-03-22T14:27:55.342Z,100496.45
2019-03-22T14:30:23.736Z,100495.32
2019-03-22T14:32:52.468Z,100489.27
2019-03-22T14:35:20.936Z,100491.54
2019-03-22T14:37:49.343Z,100493.94
2019-03-22T14:40:17.754Z,100485.39
2019-03-22T14:42:46.190Z,100491.19
2019-03-22T14:45:14.729Z,100492.19
2019-03-22T14:47:43.140Z,100482.45
2019-03-22T14:50:12.171Z,100484.42
2019-03-22T14:52:40.561Z,100471.88
2019-03-22T14:55:09.217Z,100474.93
2019-03-22T14:57:47.772Z,100475.48
2019-03-22T15:00:10.381Z,100473.14
2019-03-22T15:02:38.803Z,100470.54
2019-03-22T15:05:07.538Z,100469.39
2019-03-22T15:07:35.966Z,100464.13
2019-03-22T15:10:06.300Z,100463.73
2019-03-22T15:12:34.712Z,100467.04
2019-03-22T15:15:08.329Z,100466.33
2019-03-22T15:17:54.757Z,100465.95
2019-03-22T15:20:25.136Z,100465.57
2019-03-22T15:22:57.913Z,100455.92
2019-03-22T15:25:37.070Z,100459.20
2019-03-22T15:28:24.969Z,100455.89
2019-03-22T15:31:11.263Z,100454.55
2019-03-22T15:33:50.132Z,100455.29
2019-03-22T15:36:22.837Z,100451.75
2019-03-22T15:39:08.281Z,100452.83
2019-03-22T15:41:36.833Z,100444.33
2019-03-22T15:44:05.392Z,100447.57
2019-03-22T15:46:34.060Z,100445.75
2019-03-22T15:49:02.461Z,100445.64
2019-03-22T15:51:30.848Z,100446.41
2019-03-22T15:53:59.565Z,100440.46
2019-03-22T15:56:27.959Z,100447.13
2019-03-22T15:58:56.728Z,100445.78
2019-03-22T16:01:25.125Z,100440.05
2019-03-22T16:03:53.681Z,100433.36
2019-03-22T16:06:22.084Z,100434.31
2019-03-22T16:08:50.481Z,100433.98
2019-03-22T16:11:18.901Z,100435.98
2019-03-22T16:13:47.300Z,100441.56
2019-03-22T16:16:15.731Z,100440.05
2019-03-22T16:18:44.133Z,100435.95
2019-03-22T16:21:12.531Z,100425.43
2019-03-22T16:23:41.121Z,100428.05
2019-03-22T16:26:09.523Z,100432.67
2019-03-22T16:28:37.941Z,100429.99
2019-03-22T16:31:06.336Z,100435.52
2019-03-22T16:33:34.768Z,100438.70
2019-03-22T16:36:03.197Z,100435.86
2019-03-22T16:38:31.604Z,100431.97
2019-03-22T16:41:00.029Z,100433.13
2019-03-22T16:43:28.434Z,100429.84
2019-03-22T16:45:56.856Z,100430.45
2019-03-22T16:48:25.258Z,100436.34
2019-03-22T16:50:53.683Z,100437.30
2019-03-22T16:53:22.102Z,100431.16
2019-03-22T16:55:50.508Z,100422.20
2019-03-22T16:58:18.926Z,100419.66
2019-03-22T17:00:49.802Z,100433.06
2019-03-22T17:03:17.864Z,100428.69
2019-03-22T17:05:46.283Z,100431.13
2019-03-22T17:08:15.003Z,100426.04
2019-03-22T17:10:43.421Z,100431.11
2019-03-22T17:13:11.829Z,100437.51
2019-03-22T17:15:40.222Z,100437.23
2019-03-22T17:18:08.685Z,100434.83
2019-03-22T17:20:37.085Z,100434.83
2019-03-22T17:23:05.519Z,100435.78
2019-03-22T17:25:33.910Z,100438.52
2019-03-22T17:28:02.320Z,100437.29
2019-03-22T17:30:30.741Z,100440.51
2019-03-22T17:32:59.145Z,100436.61
2019-03-22T17:35:27.540Z,100441.13
2019-03-22T17:37:55.975Z,100442.95
2019-03-22T17:40:24.438Z,100440.83
2019-03-22T17:42:52.832Z,100444.00
2019-03-22T17:45:21.439Z,100446.77
2019-03-22T17:47:49.879Z,100442.44
2019-03-22T17:50:18.519Z,100454.16
2019-03-22T17:52:46.947Z,100450.83
2019-03-22T17:55:15.577Z,100458.55
2019-03-22T17:57:43.981Z,100457.82
2019-03-22T18:00:18.829Z,100464.13
2019-03-22T18:02:47.228Z,100458.89
2019-03-22T18:05:15.704Z,100459.41
2019-03-22T18:07:44.114Z,100465.73
2019-03-22T18:10:12.861Z,100466.23
2019-03-22T18:12:41.266Z,100468.01
2019-03-22T18:15:12.111Z,100466.67
2019-03-22T18:17:40.506Z,100479.96
2019-03-22T18:20:13.953Z,100479.05
2019-03-22T18:22:42.389Z,100478.11
2019-03-22T18:25:15.699Z,100485.16
2019-03-22T18:27:44.043Z,100480.66
2019-03-22T18:30:14.569Z,100486.70
2019-03-22T18:32:43.313Z,100483.98
2019-03-22T18:35:12.151Z,100494.55
2019-03-22T18:37:40.584Z,100497.13
2019-03-22T18:40:15.340Z,100502.88
2019-03-22T18:42:43.794Z,100505.58
2019-03-22T18:45:15.321Z,100513.05
2019-03-22T18:47:43.715Z,100507.55
2019-03-22T18:50:13.651Z,100516.08
2019-03-22T18:52:42.087Z,100513.22
2019-03-22T18:55:11.023Z,100516.52
2019-03-22T18:57:39.411Z,100519.50
2019-03-22T19:00:11.479Z,100522.38
2019-03-22T19:02:39.877Z,100523.09
2019-03-22T19:05:08.917Z,100519.39
2019-03-22T19:07:37.331Z,100526.41
2019-03-22T19:10:09.042Z,100527.56
2019-03-22T19:12:37.464Z,100535.72
2019-03-22T19:15:08.902Z,100533.70
2019-03-22T19:17:37.334Z,100532.27
2019-03-22T19:20:08.173Z,100532.55
2019-03-22T19:22:36.573Z,100532.74
2019-03-22T19:25:07.023Z,100538.17
2019-03-22T19:27:35.423Z,100538.67
2019-03-22T19:30:09.816Z,100536.91
2019-03-22T19:32:38.216Z,100537.50
2019-03-22T19:35:08.257Z,100533.31
2019-03-22T19:37:36.930Z,100535.80
2019-03-22T19:40:10.246Z,100534.83
2019-03-22T19:42:38.645Z,100537.25
2019-03-22T19:45:09.399Z,100539.33
2019-03-22T19:47:37.856Z,100539.29
2019-03-22T19:50:07.783Z,100540.49
2019-03-22T19:52:36.278Z,100534.09
2019-03-22T19:55:10.382Z,100539.42
2019-03-22T19:57:39.049Z,100541.25
2019-03-22T20:00:13.482Z,100549.80
2019-03-22T20:02:41.956Z,100553.50
2019-03-22T20:05:10.363Z,100554.64
2019-03-22T20:07:38.767Z,100557.19
2019-03-22T20:10:12.904Z,100558.48
2019-03-22T20:12:41.327Z,100559.08
2019-03-22T20:15:11.266Z,100558.89
2019-03-22T20:17:39.760Z,100558.85
2019-03-22T20:20:09.292Z,100556.58
2019-03-22T20:22:37.998Z,100555.00
2019-03-22T20:25:08.354Z,100557.38
2019-03-22T20:27:36.751Z,100555.30
2019-03-22T20:30:14.037Z,100557.53
2019-03-22T20:32:42.437Z,100559.05
2019-03-22T20:35:16.224Z,100568.03
2019-03-22T20:37:41.239Z,100563.95
2019-03-22T20:40:12.216Z,100565.36
2019-03-22T20:42:40.634Z,100569.95
2019-03-22T20:45:09.770Z,100567.91
2019-03-22T20:47:38.196Z,100573.23
2019-03-22T20:50:08.232Z,100574.69
2019-03-22T20:52:36.821Z,100575.63
2019-03-22T20:55:08.015Z,100577.61
2019-03-22T20:57:36.418Z,100578.81
2019-03-22T21:00:12.669Z,100573.46
2019-03-22T21:02:41.057Z,100578.59
2019-03-22T21:05:10.113Z,100583.27
2019-03-22T21:07:38.633Z,100578.77
2019-03-22T21:10:08.656Z,100585.11
2019-03-22T21:12:37.045Z,100589.26
2019-03-22T21:15:07.027Z,100590.73
2019-03-22T21:17:35.427Z,100587.02
2019-03-22T21:20:06.569Z,100593.91
2019-03-22T21:22:35.004Z,100593.22
2019-03-22T21:25:04.939Z,100592.76
2019-03-22T21:27:33.364Z,100590.87
2019-03-22T21:30:01.767Z,100598.41
2019-03-22T21:32:30.155Z,100598.56
2019-03-22T21:34:58.568Z,100592.63
2019-03-22T21:37:26.983Z,100592.81
2019-03-22T21:39:55.376Z,100584.88
2019-03-22T21:42:23.802Z,100582.98
2019-03-22T21:44:52.199Z,100584.63
2019-03-22T21:47:20.617Z,100582.87
2019-03-22T21:49:49.014Z,100583.61
2019-03-22T21:52:17.407Z,100591.09
2019-03-22T21:54:45.844Z,100592.17
2019-03-22T21:57:17.897Z,100584.61
2019-03-22T21:59:49.041Z,100583.27
2019-03-22T22:02:17.499Z,100581.70
2019-03-22T22:04:45.893Z,100578.03
2019-03-22T22:07:14.286Z,100583.47
2019-03-22T22:09:42.697Z,100579.02
2019-03-22T22:12:11.091Z,100581.70
2019-03-22T22:14:41.100Z,100579.92
2019-03-22T22:17:09.724Z,100577.64
2019-03-22T22:19:38.079Z,100580.50
2019-03-22T22:22:06.501Z,100579.07
2019-03-22T22:24:34.902Z,100585.13
2019-03-22T22:27:13.511Z,100585.13
2019-03-22T22:29:33.432Z,100582.61
2019-03-22T22:32:01.827Z,100582.34
2019-03-22T22:34:30.248Z,100583.05
2019-03-22T22:36:58.641Z,100582.25
2019-03-22T22:39:27.057Z,100587.70
2019-03-22T22:41:55.458Z,100587.17
2019-03-22T22:44:23.849Z,100587.64
2019-03-22T22:46:52.266Z,100580.50
2019-03-22T22:49:20.656Z,100588.98
2019-03-22T22:51:49.069Z,100586.30
2019-03-22T22:54:17.466Z,100587.27
2019-03-22T22:56:45.863Z,100595.88
2019-03-22T22:59:14.275Z,100593.06
2019-03-22T23:01:42.668Z,100593.61
2019-03-22T23:04:11.065Z,100592.64
2019-03-22T23:06:39.471Z,100588.25
2019-03-22T23:09:07.876Z,100587.41
2019-03-22T23:11:36.269Z,100587.78
2019-03-22T23:14:04.678Z,100586.63
2019-03-22T23:16:33.090Z,100586.14
2019-03-22T23:19:01.502Z,100581.91
2019-03-22T23:21:29.986Z,100584.80
2019-03-22T23:23:58.659Z,100584.16
2019-03-22T23:26:27.339Z,100587.13
2019-03-22T23:28:56.417Z,100585.68
2019-03-22T23:31:24.816Z,100583.69
2019-03-22T23:33:53.501Z,100575.93
2019-03-22T23:36:21.901Z,100573.79
2019-03-22T23:38:50.486Z,100577.99
2019-03-22T23:41:18.879Z,100580.61
2019-03-22T23:43:47.271Z,100576.94
2019-03-22T23:46:15.685Z,100585.39
2019-03-22T23:48:44.079Z,100565.77
2019-03-22T23:51:12.475Z,100578.45
2019-03-22T23:53:41.013Z,100574.75
2019-03-22T23:56:09.409Z,100585.11
2019-03-22T23:58:37.804Z,100582.43
